<?xml version="1.0" encoding="utf-8"?>
<gpx xmlns:xsi="http://www.w3.org/2001/XMLSchema-instance" xmlns:xsd="http://www.w3.org/2001/XMLSchema" version="1.1" creator="Shapelink.com" xmlns="http://www.topografix.com/GPX/1/1" xmlns:gpxtpx="http://www.garmin.com/xmlschemas/TrackPointExtension/v1">
  <metadata>
    <name>Running 5.03 km, 2014-03-28</name>
    <desc></desc>
    <author><name>David Ståhlman</name></author> 
    <time>2014-03-28T09:50:00Z</time>
  </metadata>
  <trk>
    <name>Running 5.03 km, 2014-03-28</name>
    <trkseg>
      <trkpt lat="60.0843356" lon="19.951345">
        <ele>30.4188</ele>
        <time>2014-03-28T09:50:00Z</time>
      </trkpt>
      <trkpt lat="60.0843268" lon="19.9512087">
        <ele>20.8057</ele>
        <time>2014-03-28T09:50:03Z</time>
      </trkpt>
      <trkpt lat="60.0843134" lon="19.9507742">
        <ele>17.4412</ele>
        <time>2014-03-28T09:50:10Z</time>
      </trkpt>
      <trkpt lat="60.0843131" lon="19.9504152">
        <ele>11.6732</ele>
        <time>2014-03-28T09:50:16Z</time>
      </trkpt>
      <trkpt lat="60.0843049" lon="19.9500992">
        <ele>9.75061</ele>
        <time>2014-03-28T09:50:21Z</time>
      </trkpt>
      <trkpt lat="60.0843439" lon="19.9497174">
        <ele>5.90527</ele>
        <time>2014-03-28T09:50:27Z</time>
      </trkpt>
      <trkpt lat="60.0844457" lon="19.9494129">
        <ele>0</ele>
        <time>2014-03-28T09:50:32Z</time>
      </trkpt>
      <trkpt lat="60.0845371" lon="19.9490486">
        <ele>0</ele>
        <time>2014-03-28T09:50:38Z</time>
      </trkpt>
      <trkpt lat="60.0846268" lon="19.9486172">
        <ele>0</ele>
        <time>2014-03-28T09:50:44Z</time>
      </trkpt>
      <trkpt lat="60.0846718" lon="19.9481102">
        <ele>0</ele>
        <time>2014-03-28T09:50:50Z</time>
      </trkpt>
      <trkpt lat="60.0846919" lon="19.9478951">
        <ele>0</ele>
        <time>2014-03-28T09:50:53Z</time>
      </trkpt>
      <trkpt lat="60.0847277" lon="19.9474677">
        <ele>0</ele>
        <time>2014-03-28T09:50:59Z</time>
      </trkpt>
      <trkpt lat="60.0847546" lon="19.9471539">
        <ele>0</ele>
        <time>2014-03-28T09:51:04Z</time>
      </trkpt>
      <trkpt lat="60.0847194" lon="19.9469422">
        <ele>0</ele>
        <time>2014-03-28T09:51:08Z</time>
      </trkpt>
      <trkpt lat="60.0846454" lon="19.946749">
        <ele>0</ele>
        <time>2014-03-28T09:51:13Z</time>
      </trkpt>
      <trkpt lat="60.0846027" lon="19.9465778">
        <ele>0</ele>
        <time>2014-03-28T09:51:17Z</time>
      </trkpt>
      <trkpt lat="60.0845188" lon="19.9462543">
        <ele>0</ele>
        <time>2014-03-28T09:51:23Z</time>
      </trkpt>
      <trkpt lat="60.0844925" lon="19.9460898">
        <ele>0</ele>
        <time>2014-03-28T09:51:27Z</time>
      </trkpt>
      <trkpt lat="60.0844384" lon="19.9458983">
        <ele>0</ele>
        <time>2014-03-28T09:51:32Z</time>
      </trkpt>
      <trkpt lat="60.0844004" lon="19.9457232">
        <ele>0</ele>
        <time>2014-03-28T09:51:36Z</time>
      </trkpt>
      <trkpt lat="60.0843106" lon="19.9454473">
        <ele>0</ele>
        <time>2014-03-28T09:51:42Z</time>
      </trkpt>
      <trkpt lat="60.0842107" lon="19.9451745">
        <ele>0</ele>
        <time>2014-03-28T09:51:47Z</time>
      </trkpt>
      <trkpt lat="60.0841268" lon="19.9449845">
        <ele>0</ele>
        <time>2014-03-28T09:51:51Z</time>
      </trkpt>
      <trkpt lat="60.0840346" lon="19.9448176">
        <ele>0</ele>
        <time>2014-03-28T09:51:56Z</time>
      </trkpt>
      <trkpt lat="60.0840082" lon="19.9447383">
        <ele>0</ele>
        <time>2014-03-28T09:51:58Z</time>
      </trkpt>
      <trkpt lat="60.0841149" lon="19.9443618">
        <ele>0</ele>
        <time>2014-03-28T09:52:04Z</time>
      </trkpt>
      <trkpt lat="60.0841714" lon="19.9441478">
        <ele>0</ele>
        <time>2014-03-28T09:52:09Z</time>
      </trkpt>
      <trkpt lat="60.0841769" lon="19.9441053">
        <ele>0</ele>
        <time>2014-03-28T09:52:10Z</time>
      </trkpt>
      <trkpt lat="60.0841492" lon="19.943942">
        <ele>0</ele>
        <time>2014-03-28T09:52:15Z</time>
      </trkpt>
      <trkpt lat="60.0841489" lon="19.9439016">
        <ele>0</ele>
        <time>2014-03-28T09:52:16Z</time>
      </trkpt>
      <trkpt lat="60.0841644" lon="19.9437031">
        <ele>0</ele>
        <time>2014-03-28T09:52:21Z</time>
      </trkpt>
      <trkpt lat="60.0841522" lon="19.9433677">
        <ele>0</ele>
        <time>2014-03-28T09:52:27Z</time>
      </trkpt>
      <trkpt lat="60.0841308" lon="19.9431165">
        <ele>0</ele>
        <time>2014-03-28T09:52:32Z</time>
      </trkpt>
      <trkpt lat="60.0841013" lon="19.9429966">
        <ele>0</ele>
        <time>2014-03-28T09:52:35Z</time>
      </trkpt>
      <trkpt lat="60.0840134" lon="19.9428267">
        <ele>0</ele>
        <time>2014-03-28T09:52:40Z</time>
      </trkpt>
      <trkpt lat="60.0838455" lon="19.9426632">
        <ele>0</ele>
        <time>2014-03-28T09:52:45Z</time>
      </trkpt>
      <trkpt lat="60.0837739" lon="19.9426134">
        <ele>0</ele>
        <time>2014-03-28T09:52:48Z</time>
      </trkpt>
      <trkpt lat="60.0837839" lon="19.9425115">
        <ele>0</ele>
        <time>2014-03-28T09:52:53Z</time>
      </trkpt>
      <trkpt lat="60.0838399" lon="19.9423652">
        <ele>0</ele>
        <time>2014-03-28T09:52:57Z</time>
      </trkpt>
      <trkpt lat="60.0838704" lon="19.9421198">
        <ele>0</ele>
        <time>2014-03-28T09:53:02Z</time>
      </trkpt>
      <trkpt lat="60.0838774" lon="19.9420146">
        <ele>0</ele>
        <time>2014-03-28T09:53:04Z</time>
      </trkpt>
      <trkpt lat="60.0838557" lon="19.9415027">
        <ele>0</ele>
        <time>2014-03-28T09:53:11Z</time>
      </trkpt>
      <trkpt lat="60.0838697" lon="19.9413723">
        <ele>0</ele>
        <time>2014-03-28T09:53:14Z</time>
      </trkpt>
      <trkpt lat="60.0839818" lon="19.9413231">
        <ele>0</ele>
        <time>2014-03-28T09:53:18Z</time>
      </trkpt>
      <trkpt lat="60.0840355" lon="19.9413268">
        <ele>0</ele>
        <time>2014-03-28T09:53:20Z</time>
        <extensions><gpxtpx:TrackPointExtension><gpxtpx:hr>84</gpxtpx:hr></gpxtpx:TrackPointExtension></extensions>
      </trkpt>
      <trkpt lat="60.0841201" lon="19.9413591">
        <ele>0</ele>
        <time>2014-03-28T09:53:23Z</time>
        <extensions><gpxtpx:TrackPointExtension><gpxtpx:hr>95</gpxtpx:hr></gpxtpx:TrackPointExtension></extensions>
      </trkpt>
      <trkpt lat="60.084148" lon="19.9413685">
        <ele>0</ele>
        <time>2014-03-28T09:53:24Z</time>
        <extensions><gpxtpx:TrackPointExtension><gpxtpx:hr>111</gpxtpx:hr></gpxtpx:TrackPointExtension></extensions>
      </trkpt>
      <trkpt lat="60.0841649" lon="19.9413082">
        <ele>0</ele>
        <time>2014-03-28T09:53:25Z</time>
        <extensions><gpxtpx:TrackPointExtension><gpxtpx:hr>111</gpxtpx:hr></gpxtpx:TrackPointExtension></extensions>
      </trkpt>
      <trkpt lat="60.0842138" lon="19.941321">
        <ele>0</ele>
        <time>2014-03-28T09:53:27Z</time>
        <extensions><gpxtpx:TrackPointExtension><gpxtpx:hr>124</gpxtpx:hr></gpxtpx:TrackPointExtension></extensions>
      </trkpt>
      <trkpt lat="60.0842385" lon="19.941322">
        <ele>0</ele>
        <time>2014-03-28T09:53:28Z</time>
        <extensions><gpxtpx:TrackPointExtension><gpxtpx:hr>124</gpxtpx:hr></gpxtpx:TrackPointExtension></extensions>
      </trkpt>
      <trkpt lat="60.0843091" lon="19.9413379">
        <ele>0</ele>
        <time>2014-03-28T09:53:31Z</time>
        <extensions><gpxtpx:TrackPointExtension><gpxtpx:hr>129</gpxtpx:hr></gpxtpx:TrackPointExtension></extensions>
      </trkpt>
      <trkpt lat="60.0843273" lon="19.9413283">
        <ele>0</ele>
        <time>2014-03-28T09:53:32Z</time>
        <extensions><gpxtpx:TrackPointExtension><gpxtpx:hr>142</gpxtpx:hr></gpxtpx:TrackPointExtension></extensions>
      </trkpt>
      <trkpt lat="60.0843528" lon="19.9413443">
        <ele>0</ele>
        <time>2014-03-28T09:53:33Z</time>
        <extensions><gpxtpx:TrackPointExtension><gpxtpx:hr>151</gpxtpx:hr></gpxtpx:TrackPointExtension></extensions>
      </trkpt>
      <trkpt lat="60.084404" lon="19.9413363">
        <ele>0</ele>
        <time>2014-03-28T09:53:35Z</time>
        <extensions><gpxtpx:TrackPointExtension><gpxtpx:hr>154</gpxtpx:hr></gpxtpx:TrackPointExtension></extensions>
      </trkpt>
      <trkpt lat="60.0845436" lon="19.9413139">
        <ele>0</ele>
        <time>2014-03-28T09:53:40Z</time>
        <extensions><gpxtpx:TrackPointExtension><gpxtpx:hr>154</gpxtpx:hr></gpxtpx:TrackPointExtension></extensions>
      </trkpt>
      <trkpt lat="60.0847158" lon="19.9412495">
        <ele>0</ele>
        <time>2014-03-28T09:53:45Z</time>
        <extensions><gpxtpx:TrackPointExtension><gpxtpx:hr>154</gpxtpx:hr></gpxtpx:TrackPointExtension></extensions>
      </trkpt>
      <trkpt lat="60.0848054" lon="19.94113">
        <ele>0</ele>
        <time>2014-03-28T09:53:48Z</time>
        <extensions><gpxtpx:TrackPointExtension><gpxtpx:hr>155</gpxtpx:hr></gpxtpx:TrackPointExtension></extensions>
      </trkpt>
      <trkpt lat="60.0848321" lon="19.9410154">
        <ele>0</ele>
        <time>2014-03-28T09:53:50Z</time>
        <extensions><gpxtpx:TrackPointExtension><gpxtpx:hr>160</gpxtpx:hr></gpxtpx:TrackPointExtension></extensions>
      </trkpt>
      <trkpt lat="60.0848199" lon="19.9407526">
        <ele>0</ele>
        <time>2014-03-28T09:53:54Z</time>
        <extensions><gpxtpx:TrackPointExtension><gpxtpx:hr>163</gpxtpx:hr></gpxtpx:TrackPointExtension></extensions>
      </trkpt>
      <trkpt lat="60.0848106" lon="19.9406956">
        <ele>0</ele>
        <time>2014-03-28T09:53:55Z</time>
        <extensions><gpxtpx:TrackPointExtension><gpxtpx:hr>163</gpxtpx:hr></gpxtpx:TrackPointExtension></extensions>
      </trkpt>
      <trkpt lat="60.0848422" lon="19.9404533">
        <ele>0</ele>
        <time>2014-03-28T09:53:59Z</time>
        <extensions><gpxtpx:TrackPointExtension><gpxtpx:hr>165</gpxtpx:hr></gpxtpx:TrackPointExtension></extensions>
      </trkpt>
      <trkpt lat="60.0848525" lon="19.9400887">
        <ele>0</ele>
        <time>2014-03-28T09:54:05Z</time>
        <extensions><gpxtpx:TrackPointExtension><gpxtpx:hr>166</gpxtpx:hr></gpxtpx:TrackPointExtension></extensions>
      </trkpt>
      <trkpt lat="60.0848945" lon="19.9397499">
        <ele>0</ele>
        <time>2014-03-28T09:54:10Z</time>
        <extensions><gpxtpx:TrackPointExtension><gpxtpx:hr>169</gpxtpx:hr></gpxtpx:TrackPointExtension></extensions>
      </trkpt>
      <trkpt lat="60.0850044" lon="19.9395856">
        <ele>0</ele>
        <time>2014-03-28T09:54:14Z</time>
        <extensions><gpxtpx:TrackPointExtension><gpxtpx:hr>170</gpxtpx:hr></gpxtpx:TrackPointExtension></extensions>
      </trkpt>
      <trkpt lat="60.0851326" lon="19.939522">
        <ele>0</ele>
        <time>2014-03-28T09:54:18Z</time>
        <extensions><gpxtpx:TrackPointExtension><gpxtpx:hr>172</gpxtpx:hr></gpxtpx:TrackPointExtension></extensions>
      </trkpt>
      <trkpt lat="60.0853303" lon="19.9393623">
        <ele>0</ele>
        <time>2014-03-28T09:54:24Z</time>
        <extensions><gpxtpx:TrackPointExtension><gpxtpx:hr>171</gpxtpx:hr></gpxtpx:TrackPointExtension></extensions>
      </trkpt>
      <trkpt lat="60.0855159" lon="19.9392314">
        <ele>0</ele>
        <time>2014-03-28T09:54:29Z</time>
        <extensions><gpxtpx:TrackPointExtension><gpxtpx:hr>171</gpxtpx:hr></gpxtpx:TrackPointExtension></extensions>
      </trkpt>
      <trkpt lat="60.0856881" lon="19.939109">
        <ele>0</ele>
        <time>2014-03-28T09:54:34Z</time>
        <extensions><gpxtpx:TrackPointExtension><gpxtpx:hr>172</gpxtpx:hr></gpxtpx:TrackPointExtension></extensions>
      </trkpt>
      <trkpt lat="60.0858978" lon="19.9389584">
        <ele>0</ele>
        <time>2014-03-28T09:54:40Z</time>
        <extensions><gpxtpx:TrackPointExtension><gpxtpx:hr>173</gpxtpx:hr></gpxtpx:TrackPointExtension></extensions>
      </trkpt>
      <trkpt lat="60.086044" lon="19.9388098">
        <ele>0</ele>
        <time>2014-03-28T09:54:45Z</time>
        <extensions><gpxtpx:TrackPointExtension><gpxtpx:hr>174</gpxtpx:hr></gpxtpx:TrackPointExtension></extensions>
      </trkpt>
      <trkpt lat="60.0860495" lon="19.9386041">
        <ele>0</ele>
        <time>2014-03-28T09:54:49Z</time>
        <extensions><gpxtpx:TrackPointExtension><gpxtpx:hr>175</gpxtpx:hr></gpxtpx:TrackPointExtension></extensions>
      </trkpt>
      <trkpt lat="60.0860321" lon="19.9385491">
        <ele>0</ele>
        <time>2014-03-28T09:54:50Z</time>
        <extensions><gpxtpx:TrackPointExtension><gpxtpx:hr>175</gpxtpx:hr></gpxtpx:TrackPointExtension></extensions>
      </trkpt>
      <trkpt lat="60.0859207" lon="19.938184">
        <ele>0</ele>
        <time>2014-03-28T09:54:57Z</time>
        <extensions><gpxtpx:TrackPointExtension><gpxtpx:hr>175</gpxtpx:hr></gpxtpx:TrackPointExtension></extensions>
      </trkpt>
      <trkpt lat="60.0858425" lon="19.9379814">
        <ele>0</ele>
        <time>2014-03-28T09:55:01Z</time>
        <extensions><gpxtpx:TrackPointExtension><gpxtpx:hr>175</gpxtpx:hr></gpxtpx:TrackPointExtension></extensions>
      </trkpt>
      <trkpt lat="60.0857656" lon="19.9378519">
        <ele>0</ele>
        <time>2014-03-28T09:55:05Z</time>
        <extensions><gpxtpx:TrackPointExtension><gpxtpx:hr>175</gpxtpx:hr></gpxtpx:TrackPointExtension></extensions>
      </trkpt>
      <trkpt lat="60.0856856" lon="19.9377812">
        <ele>5.90527</ele>
        <time>2014-03-28T09:55:10Z</time>
        <extensions><gpxtpx:TrackPointExtension><gpxtpx:hr>175</gpxtpx:hr></gpxtpx:TrackPointExtension></extensions>
      </trkpt>
      <trkpt lat="60.0856193" lon="19.9377157">
        <ele>17.9218</ele>
        <time>2014-03-28T09:55:13Z</time>
        <extensions><gpxtpx:TrackPointExtension><gpxtpx:hr>175</gpxtpx:hr></gpxtpx:TrackPointExtension></extensions>
      </trkpt>
      <trkpt lat="60.0855584" lon="19.9376574">
        <ele>27.0543</ele>
        <time>2014-03-28T09:55:17Z</time>
        <extensions><gpxtpx:TrackPointExtension><gpxtpx:hr>176</gpxtpx:hr></gpxtpx:TrackPointExtension></extensions>
      </trkpt>
      <trkpt lat="60.0855311" lon="19.9376359">
        <ele>28.9769</ele>
        <time>2014-03-28T09:55:19Z</time>
        <extensions><gpxtpx:TrackPointExtension><gpxtpx:hr>174</gpxtpx:hr></gpxtpx:TrackPointExtension></extensions>
      </trkpt>
      <trkpt lat="60.0854846" lon="19.9374414">
        <ele>24.1703</ele>
        <time>2014-03-28T09:55:23Z</time>
        <extensions><gpxtpx:TrackPointExtension><gpxtpx:hr>174</gpxtpx:hr></gpxtpx:TrackPointExtension></extensions>
      </trkpt>
      <trkpt lat="60.0854564" lon="19.9372938">
        <ele>19.8444</ele>
        <time>2014-03-28T09:55:26Z</time>
        <extensions><gpxtpx:TrackPointExtension><gpxtpx:hr>174</gpxtpx:hr></gpxtpx:TrackPointExtension></extensions>
      </trkpt>
      <trkpt lat="60.0853784" lon="19.9372126">
        <ele>17.4412</ele>
        <time>2014-03-28T09:55:31Z</time>
        <extensions><gpxtpx:TrackPointExtension><gpxtpx:hr>173</gpxtpx:hr></gpxtpx:TrackPointExtension></extensions>
      </trkpt>
      <trkpt lat="60.0852773" lon="19.936708">
        <ele>17.9218</ele>
        <time>2014-03-28T09:55:38Z</time>
        <extensions><gpxtpx:TrackPointExtension><gpxtpx:hr>174</gpxtpx:hr></gpxtpx:TrackPointExtension></extensions>
      </trkpt>
      <trkpt lat="60.0852021" lon="19.9363526">
        <ele>16.9604</ele>
        <time>2014-03-28T09:55:44Z</time>
        <extensions><gpxtpx:TrackPointExtension><gpxtpx:hr>173</gpxtpx:hr></gpxtpx:TrackPointExtension></extensions>
      </trkpt>
      <trkpt lat="60.0851404" lon="19.9361445">
        <ele>16.4797</ele>
        <time>2014-03-28T09:55:48Z</time>
        <extensions><gpxtpx:TrackPointExtension><gpxtpx:hr>171</gpxtpx:hr></gpxtpx:TrackPointExtension></extensions>
      </trkpt>
      <trkpt lat="60.0850331" lon="19.9358083">
        <ele>17.4412</ele>
        <time>2014-03-28T09:55:54Z</time>
        <extensions><gpxtpx:TrackPointExtension><gpxtpx:hr>171</gpxtpx:hr></gpxtpx:TrackPointExtension></extensions>
      </trkpt>
      <trkpt lat="60.0850038" lon="19.9354989">
        <ele>16.9604</ele>
        <time>2014-03-28T09:55:59Z</time>
        <extensions><gpxtpx:TrackPointExtension><gpxtpx:hr>170</gpxtpx:hr></gpxtpx:TrackPointExtension></extensions>
      </trkpt>
      <trkpt lat="60.0850464" lon="19.9352519">
        <ele>16.4797</ele>
        <time>2014-03-28T09:56:03Z</time>
        <extensions><gpxtpx:TrackPointExtension><gpxtpx:hr>170</gpxtpx:hr></gpxtpx:TrackPointExtension></extensions>
      </trkpt>
      <trkpt lat="60.0850945" lon="19.9348956">
        <ele>14.557</ele>
        <time>2014-03-28T09:56:09Z</time>
        <extensions><gpxtpx:TrackPointExtension><gpxtpx:hr>169</gpxtpx:hr></gpxtpx:TrackPointExtension></extensions>
      </trkpt>
      <trkpt lat="60.085153" lon="19.9345709">
        <ele>15.5184</ele>
        <time>2014-03-28T09:56:14Z</time>
        <extensions><gpxtpx:TrackPointExtension><gpxtpx:hr>170</gpxtpx:hr></gpxtpx:TrackPointExtension></extensions>
      </trkpt>
      <trkpt lat="60.0852512" lon="19.934146">
        <ele>15.5184</ele>
        <time>2014-03-28T09:56:21Z</time>
        <extensions><gpxtpx:TrackPointExtension><gpxtpx:hr>172</gpxtpx:hr></gpxtpx:TrackPointExtension></extensions>
      </trkpt>
      <trkpt lat="60.0853136" lon="19.9338545">
        <ele>15.0377</ele>
        <time>2014-03-28T09:56:26Z</time>
        <extensions><gpxtpx:TrackPointExtension><gpxtpx:hr>172</gpxtpx:hr></gpxtpx:TrackPointExtension></extensions>
      </trkpt>
      <trkpt lat="60.0853813" lon="19.9334732">
        <ele>14.0764</ele>
        <time>2014-03-28T09:56:32Z</time>
        <extensions><gpxtpx:TrackPointExtension><gpxtpx:hr>173</gpxtpx:hr></gpxtpx:TrackPointExtension></extensions>
      </trkpt>
      <trkpt lat="60.0854483" lon="19.9330801">
        <ele>12.6344</ele>
        <time>2014-03-28T09:56:38Z</time>
        <extensions><gpxtpx:TrackPointExtension><gpxtpx:hr>173</gpxtpx:hr></gpxtpx:TrackPointExtension></extensions>
      </trkpt>
      <trkpt lat="60.0854497" lon="19.9327137">
        <ele>13.5958</ele>
        <time>2014-03-28T09:56:43Z</time>
        <extensions><gpxtpx:TrackPointExtension><gpxtpx:hr>172</gpxtpx:hr></gpxtpx:TrackPointExtension></extensions>
      </trkpt>
      <trkpt lat="60.0854382" lon="19.93265">
        <ele>13.1151</ele>
        <time>2014-03-28T09:56:44Z</time>
        <extensions><gpxtpx:TrackPointExtension><gpxtpx:hr>172</gpxtpx:hr></gpxtpx:TrackPointExtension></extensions>
      </trkpt>
      <trkpt lat="60.0852783" lon="19.9324054">
        <ele>9.75061</ele>
        <time>2014-03-28T09:56:49Z</time>
        <extensions><gpxtpx:TrackPointExtension><gpxtpx:hr>170</gpxtpx:hr></gpxtpx:TrackPointExtension></extensions>
      </trkpt>
      <trkpt lat="60.0850792" lon="19.9323093">
        <ele>3.50195</ele>
        <time>2014-03-28T09:56:54Z</time>
        <extensions><gpxtpx:TrackPointExtension><gpxtpx:hr>170</gpxtpx:hr></gpxtpx:TrackPointExtension></extensions>
      </trkpt>
      <trkpt lat="60.0848592" lon="19.9323008">
        <ele>0</ele>
        <time>2014-03-28T09:57:00Z</time>
        <extensions><gpxtpx:TrackPointExtension><gpxtpx:hr>170</gpxtpx:hr></gpxtpx:TrackPointExtension></extensions>
      </trkpt>
      <trkpt lat="60.084689" lon="19.9323656">
        <ele>0</ele>
        <time>2014-03-28T09:57:05Z</time>
        <extensions><gpxtpx:TrackPointExtension><gpxtpx:hr>170</gpxtpx:hr></gpxtpx:TrackPointExtension></extensions>
      </trkpt>
      <trkpt lat="60.0846671" lon="19.93223">
        <ele>0</ele>
        <time>2014-03-28T09:57:09Z</time>
        <extensions><gpxtpx:TrackPointExtension><gpxtpx:hr>170</gpxtpx:hr></gpxtpx:TrackPointExtension></extensions>
      </trkpt>
      <trkpt lat="60.0847168" lon="19.9321864">
        <ele>0</ele>
        <time>2014-03-28T09:57:11Z</time>
        <extensions><gpxtpx:TrackPointExtension><gpxtpx:hr>170</gpxtpx:hr></gpxtpx:TrackPointExtension></extensions>
      </trkpt>
      <trkpt lat="60.0849029" lon="19.9320805">
        <ele>0</ele>
        <time>2014-03-28T09:57:18Z</time>
        <extensions><gpxtpx:TrackPointExtension><gpxtpx:hr>170</gpxtpx:hr></gpxtpx:TrackPointExtension></extensions>
      </trkpt>
      <trkpt lat="60.0850897" lon="19.9320261">
        <ele>0</ele>
        <time>2014-03-28T09:57:24Z</time>
        <extensions><gpxtpx:TrackPointExtension><gpxtpx:hr>170</gpxtpx:hr></gpxtpx:TrackPointExtension></extensions>
      </trkpt>
      <trkpt lat="60.0852022" lon="19.9319941">
        <ele>0</ele>
        <time>2014-03-28T09:57:28Z</time>
        <extensions><gpxtpx:TrackPointExtension><gpxtpx:hr>169</gpxtpx:hr></gpxtpx:TrackPointExtension></extensions>
      </trkpt>
      <trkpt lat="60.0853021" lon="19.9319904">
        <ele>1.09863</ele>
        <time>2014-03-28T09:57:33Z</time>
        <extensions><gpxtpx:TrackPointExtension><gpxtpx:hr>172</gpxtpx:hr></gpxtpx:TrackPointExtension></extensions>
      </trkpt>
      <trkpt lat="60.0854191" lon="19.9319645">
        <ele>5.42456</ele>
        <time>2014-03-28T09:57:38Z</time>
        <extensions><gpxtpx:TrackPointExtension><gpxtpx:hr>177</gpxtpx:hr></gpxtpx:TrackPointExtension></extensions>
      </trkpt>
      <trkpt lat="60.0855684" lon="19.931912">
        <ele>12.1538</ele>
        <time>2014-03-28T09:57:43Z</time>
        <extensions><gpxtpx:TrackPointExtension><gpxtpx:hr>179</gpxtpx:hr></gpxtpx:TrackPointExtension></extensions>
      </trkpt>
      <trkpt lat="60.0856627" lon="19.9318091">
        <ele>14.557</ele>
        <time>2014-03-28T09:57:46Z</time>
        <extensions><gpxtpx:TrackPointExtension><gpxtpx:hr>181</gpxtpx:hr></gpxtpx:TrackPointExtension></extensions>
      </trkpt>
      <trkpt lat="60.0858399" lon="19.9318383">
        <ele>18.8831</ele>
        <time>2014-03-28T09:57:51Z</time>
        <extensions><gpxtpx:TrackPointExtension><gpxtpx:hr>182</gpxtpx:hr></gpxtpx:TrackPointExtension></extensions>
      </trkpt>
      <trkpt lat="60.0859632" lon="19.931826">
        <ele>19.3638</ele>
        <time>2014-03-28T09:57:55Z</time>
        <extensions><gpxtpx:TrackPointExtension><gpxtpx:hr>181</gpxtpx:hr></gpxtpx:TrackPointExtension></extensions>
      </trkpt>
      <trkpt lat="60.0860712" lon="19.931692">
        <ele>19.8444</ele>
        <time>2014-03-28T09:57:59Z</time>
        <extensions><gpxtpx:TrackPointExtension><gpxtpx:hr>181</gpxtpx:hr></gpxtpx:TrackPointExtension></extensions>
      </trkpt>
      <trkpt lat="60.0861957" lon="19.9315855">
        <ele>17.4412</ele>
        <time>2014-03-28T09:58:04Z</time>
        <extensions><gpxtpx:TrackPointExtension><gpxtpx:hr>182</gpxtpx:hr></gpxtpx:TrackPointExtension></extensions>
      </trkpt>
      <trkpt lat="60.0863631" lon="19.9314337">
        <ele>14.557</ele>
        <time>2014-03-28T09:58:10Z</time>
        <extensions><gpxtpx:TrackPointExtension><gpxtpx:hr>182</gpxtpx:hr></gpxtpx:TrackPointExtension></extensions>
      </trkpt>
      <trkpt lat="60.0865077" lon="19.9313289">
        <ele>14.0764</ele>
        <time>2014-03-28T09:58:15Z</time>
        <extensions><gpxtpx:TrackPointExtension><gpxtpx:hr>181</gpxtpx:hr></gpxtpx:TrackPointExtension></extensions>
      </trkpt>
      <trkpt lat="60.0865858" lon="19.9313204">
        <ele>9.75061</ele>
        <time>2014-03-28T09:58:19Z</time>
        <extensions><gpxtpx:TrackPointExtension><gpxtpx:hr>181</gpxtpx:hr></gpxtpx:TrackPointExtension></extensions>
      </trkpt>
      <trkpt lat="60.0865624" lon="19.9312566">
        <ele>3.02124</ele>
        <time>2014-03-28T09:58:26Z</time>
        <extensions><gpxtpx:TrackPointExtension><gpxtpx:hr>182</gpxtpx:hr></gpxtpx:TrackPointExtension></extensions>
      </trkpt>
      <trkpt lat="60.0866402" lon="19.9311906">
        <ele>0</ele>
        <time>2014-03-28T09:58:30Z</time>
        <extensions><gpxtpx:TrackPointExtension><gpxtpx:hr>182</gpxtpx:hr></gpxtpx:TrackPointExtension></extensions>
      </trkpt>
      <trkpt lat="60.0868091" lon="19.9310433">
        <ele>0</ele>
        <time>2014-03-28T09:58:37Z</time>
        <extensions><gpxtpx:TrackPointExtension><gpxtpx:hr>180</gpxtpx:hr></gpxtpx:TrackPointExtension></extensions>
      </trkpt>
      <trkpt lat="60.0870235" lon="19.9309551">
        <ele>0</ele>
        <time>2014-03-28T09:58:45Z</time>
        <extensions><gpxtpx:TrackPointExtension><gpxtpx:hr>176</gpxtpx:hr></gpxtpx:TrackPointExtension></extensions>
      </trkpt>
      <trkpt lat="60.0871681" lon="19.9308793">
        <ele>0</ele>
        <time>2014-03-28T09:58:49Z</time>
        <extensions><gpxtpx:TrackPointExtension><gpxtpx:hr>177</gpxtpx:hr></gpxtpx:TrackPointExtension></extensions>
      </trkpt>
      <trkpt lat="60.0873245" lon="19.9308725">
        <ele>0</ele>
        <time>2014-03-28T09:58:54Z</time>
        <extensions><gpxtpx:TrackPointExtension><gpxtpx:hr>176</gpxtpx:hr></gpxtpx:TrackPointExtension></extensions>
      </trkpt>
      <trkpt lat="60.0874913" lon="19.9308929">
        <ele>0</ele>
        <time>2014-03-28T09:58:59Z</time>
        <extensions><gpxtpx:TrackPointExtension><gpxtpx:hr>177</gpxtpx:hr></gpxtpx:TrackPointExtension></extensions>
      </trkpt>
      <trkpt lat="60.0876423" lon="19.9308982">
        <ele>0</ele>
        <time>2014-03-28T09:59:03Z</time>
        <extensions><gpxtpx:TrackPointExtension><gpxtpx:hr>177</gpxtpx:hr></gpxtpx:TrackPointExtension></extensions>
      </trkpt>
      <trkpt lat="60.0878352" lon="19.9310694">
        <ele>0</ele>
        <time>2014-03-28T09:59:09Z</time>
        <extensions><gpxtpx:TrackPointExtension><gpxtpx:hr>179</gpxtpx:hr></gpxtpx:TrackPointExtension></extensions>
      </trkpt>
      <trkpt lat="60.0880031" lon="19.9312253">
        <ele>0</ele>
        <time>2014-03-28T09:59:15Z</time>
        <extensions><gpxtpx:TrackPointExtension><gpxtpx:hr>178</gpxtpx:hr></gpxtpx:TrackPointExtension></extensions>
      </trkpt>
      <trkpt lat="60.0881797" lon="19.9313422">
        <ele>0</ele>
        <time>2014-03-28T09:59:21Z</time>
        <extensions><gpxtpx:TrackPointExtension><gpxtpx:hr>178</gpxtpx:hr></gpxtpx:TrackPointExtension></extensions>
      </trkpt>
      <trkpt lat="60.0883354" lon="19.9313897">
        <ele>0</ele>
        <time>2014-03-28T09:59:26Z</time>
        <extensions><gpxtpx:TrackPointExtension><gpxtpx:hr>177</gpxtpx:hr></gpxtpx:TrackPointExtension></extensions>
      </trkpt>
      <trkpt lat="60.0885102" lon="19.9314084">
        <ele>0</ele>
        <time>2014-03-28T09:59:31Z</time>
        <extensions><gpxtpx:TrackPointExtension><gpxtpx:hr>178</gpxtpx:hr></gpxtpx:TrackPointExtension></extensions>
      </trkpt>
      <trkpt lat="60.0887007" lon="19.931388">
        <ele>0</ele>
        <time>2014-03-28T09:59:37Z</time>
        <extensions><gpxtpx:TrackPointExtension><gpxtpx:hr>177</gpxtpx:hr></gpxtpx:TrackPointExtension></extensions>
      </trkpt>
      <trkpt lat="60.0888485" lon="19.931318">
        <ele>0</ele>
        <time>2014-03-28T09:59:42Z</time>
        <extensions><gpxtpx:TrackPointExtension><gpxtpx:hr>177</gpxtpx:hr></gpxtpx:TrackPointExtension></extensions>
      </trkpt>
      <trkpt lat="60.088998" lon="19.931228">
        <ele>0</ele>
        <time>2014-03-28T09:59:47Z</time>
        <extensions><gpxtpx:TrackPointExtension><gpxtpx:hr>178</gpxtpx:hr></gpxtpx:TrackPointExtension></extensions>
      </trkpt>
      <trkpt lat="60.0891856" lon="19.9311233">
        <ele>0</ele>
        <time>2014-03-28T09:59:53Z</time>
        <extensions><gpxtpx:TrackPointExtension><gpxtpx:hr>179</gpxtpx:hr></gpxtpx:TrackPointExtension></extensions>
      </trkpt>
      <trkpt lat="60.0893539" lon="19.9310489">
        <ele>0</ele>
        <time>2014-03-28T09:59:58Z</time>
        <extensions><gpxtpx:TrackPointExtension><gpxtpx:hr>179</gpxtpx:hr></gpxtpx:TrackPointExtension></extensions>
      </trkpt>
      <trkpt lat="60.0895108" lon="19.9309655">
        <ele>0</ele>
        <time>2014-03-28T10:00:03Z</time>
        <extensions><gpxtpx:TrackPointExtension><gpxtpx:hr>180</gpxtpx:hr></gpxtpx:TrackPointExtension></extensions>
      </trkpt>
      <trkpt lat="60.0896632" lon="19.9308886">
        <ele>0</ele>
        <time>2014-03-28T10:00:08Z</time>
        <extensions><gpxtpx:TrackPointExtension><gpxtpx:hr>179</gpxtpx:hr></gpxtpx:TrackPointExtension></extensions>
      </trkpt>
      <trkpt lat="60.0898544" lon="19.9307829">
        <ele>0</ele>
        <time>2014-03-28T10:00:14Z</time>
        <extensions><gpxtpx:TrackPointExtension><gpxtpx:hr>179</gpxtpx:hr></gpxtpx:TrackPointExtension></extensions>
      </trkpt>
      <trkpt lat="60.0900429" lon="19.9306837">
        <ele>0</ele>
        <time>2014-03-28T10:00:20Z</time>
        <extensions><gpxtpx:TrackPointExtension><gpxtpx:hr>179</gpxtpx:hr></gpxtpx:TrackPointExtension></extensions>
      </trkpt>
      <trkpt lat="60.0901685" lon="19.9306262">
        <ele>0</ele>
        <time>2014-03-28T10:00:25Z</time>
        <extensions><gpxtpx:TrackPointExtension><gpxtpx:hr>179</gpxtpx:hr></gpxtpx:TrackPointExtension></extensions>
      </trkpt>
      <trkpt lat="60.0902771" lon="19.9305439">
        <ele>0</ele>
        <time>2014-03-28T10:00:30Z</time>
        <extensions><gpxtpx:TrackPointExtension><gpxtpx:hr>180</gpxtpx:hr></gpxtpx:TrackPointExtension></extensions>
      </trkpt>
      <trkpt lat="60.090474" lon="19.93046">
        <ele>0</ele>
        <time>2014-03-28T10:00:37Z</time>
        <extensions><gpxtpx:TrackPointExtension><gpxtpx:hr>181</gpxtpx:hr></gpxtpx:TrackPointExtension></extensions>
      </trkpt>
      <trkpt lat="60.0906417" lon="19.9304496">
        <ele>1.57935</ele>
        <time>2014-03-28T10:00:43Z</time>
        <extensions><gpxtpx:TrackPointExtension><gpxtpx:hr>181</gpxtpx:hr></gpxtpx:TrackPointExtension></extensions>
      </trkpt>
      <trkpt lat="60.0907858" lon="19.9305713">
        <ele>9.2699</ele>
        <time>2014-03-28T10:00:49Z</time>
        <extensions><gpxtpx:TrackPointExtension><gpxtpx:hr>181</gpxtpx:hr></gpxtpx:TrackPointExtension></extensions>
      </trkpt>
      <trkpt lat="60.0908768" lon="19.9307531">
        <ele>10.7118</ele>
        <time>2014-03-28T10:00:54Z</time>
        <extensions><gpxtpx:TrackPointExtension><gpxtpx:hr>182</gpxtpx:hr></gpxtpx:TrackPointExtension></extensions>
      </trkpt>
      <trkpt lat="60.0910349" lon="19.9308958">
        <ele>14.0764</ele>
        <time>2014-03-28T10:01:00Z</time>
        <extensions><gpxtpx:TrackPointExtension><gpxtpx:hr>184</gpxtpx:hr></gpxtpx:TrackPointExtension></extensions>
      </trkpt>
      <trkpt lat="60.0911902" lon="19.9308451">
        <ele>13.5958</ele>
        <time>2014-03-28T10:01:05Z</time>
        <extensions><gpxtpx:TrackPointExtension><gpxtpx:hr>184</gpxtpx:hr></gpxtpx:TrackPointExtension></extensions>
      </trkpt>
      <trkpt lat="60.0913028" lon="19.9305904">
        <ele>13.5958</ele>
        <time>2014-03-28T10:01:10Z</time>
        <extensions><gpxtpx:TrackPointExtension><gpxtpx:hr>183</gpxtpx:hr></gpxtpx:TrackPointExtension></extensions>
      </trkpt>
      <trkpt lat="60.0913862" lon="19.9304007">
        <ele>13.1151</ele>
        <time>2014-03-28T10:01:14Z</time>
        <extensions><gpxtpx:TrackPointExtension><gpxtpx:hr>184</gpxtpx:hr></gpxtpx:TrackPointExtension></extensions>
      </trkpt>
      <trkpt lat="60.091521" lon="19.9302307">
        <ele>13.1151</ele>
        <time>2014-03-28T10:01:19Z</time>
        <extensions><gpxtpx:TrackPointExtension><gpxtpx:hr>183</gpxtpx:hr></gpxtpx:TrackPointExtension></extensions>
      </trkpt>
      <trkpt lat="60.0917006" lon="19.9300992">
        <ele>13.5958</ele>
        <time>2014-03-28T10:01:25Z</time>
        <extensions><gpxtpx:TrackPointExtension><gpxtpx:hr>182</gpxtpx:hr></gpxtpx:TrackPointExtension></extensions>
      </trkpt>
      <trkpt lat="60.0918877" lon="19.9299137">
        <ele>13.5958</ele>
        <time>2014-03-28T10:01:32Z</time>
        <extensions><gpxtpx:TrackPointExtension><gpxtpx:hr>182</gpxtpx:hr></gpxtpx:TrackPointExtension></extensions>
      </trkpt>
      <trkpt lat="60.0920172" lon="19.9297063">
        <ele>14.557</ele>
        <time>2014-03-28T10:01:38Z</time>
        <extensions><gpxtpx:TrackPointExtension><gpxtpx:hr>182</gpxtpx:hr></gpxtpx:TrackPointExtension></extensions>
      </trkpt>
      <trkpt lat="60.0921833" lon="19.9295135">
        <ele>14.557</ele>
        <time>2014-03-28T10:01:44Z</time>
        <extensions><gpxtpx:TrackPointExtension><gpxtpx:hr>182</gpxtpx:hr></gpxtpx:TrackPointExtension></extensions>
      </trkpt>
      <trkpt lat="60.0923286" lon="19.9293973">
        <ele>13.5958</ele>
        <time>2014-03-28T10:01:49Z</time>
        <extensions><gpxtpx:TrackPointExtension><gpxtpx:hr>182</gpxtpx:hr></gpxtpx:TrackPointExtension></extensions>
      </trkpt>
      <trkpt lat="60.0924313" lon="19.9292488">
        <ele>13.1151</ele>
        <time>2014-03-28T10:01:53Z</time>
        <extensions><gpxtpx:TrackPointExtension><gpxtpx:hr>183</gpxtpx:hr></gpxtpx:TrackPointExtension></extensions>
      </trkpt>
      <trkpt lat="60.092571" lon="19.9291571">
        <ele>12.1538</ele>
        <time>2014-03-28T10:01:57Z</time>
        <extensions><gpxtpx:TrackPointExtension><gpxtpx:hr>183</gpxtpx:hr></gpxtpx:TrackPointExtension></extensions>
      </trkpt>
      <trkpt lat="60.092766" lon="19.9290562">
        <ele>10.7118</ele>
        <time>2014-03-28T10:02:03Z</time>
        <extensions><gpxtpx:TrackPointExtension><gpxtpx:hr>183</gpxtpx:hr></gpxtpx:TrackPointExtension></extensions>
      </trkpt>
      <trkpt lat="60.092955" lon="19.9289695">
        <ele>9.75061</ele>
        <time>2014-03-28T10:02:09Z</time>
        <extensions><gpxtpx:TrackPointExtension><gpxtpx:hr>182</gpxtpx:hr></gpxtpx:TrackPointExtension></extensions>
      </trkpt>
      <trkpt lat="60.0931416" lon="19.9288943">
        <ele>9.75061</ele>
        <time>2014-03-28T10:02:15Z</time>
        <extensions><gpxtpx:TrackPointExtension><gpxtpx:hr>183</gpxtpx:hr></gpxtpx:TrackPointExtension></extensions>
      </trkpt>
      <trkpt lat="60.0933379" lon="19.9288295">
        <ele>9.75061</ele>
        <time>2014-03-28T10:02:21Z</time>
        <extensions><gpxtpx:TrackPointExtension><gpxtpx:hr>184</gpxtpx:hr></gpxtpx:TrackPointExtension></extensions>
      </trkpt>
      <trkpt lat="60.0934988" lon="19.9286956">
        <ele>9.75061</ele>
        <time>2014-03-28T10:02:26Z</time>
        <extensions><gpxtpx:TrackPointExtension><gpxtpx:hr>184</gpxtpx:hr></gpxtpx:TrackPointExtension></extensions>
      </trkpt>
      <trkpt lat="60.0936541" lon="19.9285428">
        <ele>9.75061</ele>
        <time>2014-03-28T10:02:31Z</time>
        <extensions><gpxtpx:TrackPointExtension><gpxtpx:hr>184</gpxtpx:hr></gpxtpx:TrackPointExtension></extensions>
      </trkpt>
      <trkpt lat="60.0938173" lon="19.9284308">
        <ele>7.82788</ele>
        <time>2014-03-28T10:02:36Z</time>
        <extensions><gpxtpx:TrackPointExtension><gpxtpx:hr>184</gpxtpx:hr></gpxtpx:TrackPointExtension></extensions>
      </trkpt>
      <trkpt lat="60.0939628" lon="19.9283579">
        <ele>5.90527</ele>
        <time>2014-03-28T10:02:41Z</time>
        <extensions><gpxtpx:TrackPointExtension><gpxtpx:hr>183</gpxtpx:hr></gpxtpx:TrackPointExtension></extensions>
      </trkpt>
      <trkpt lat="60.0941358" lon="19.9282589">
        <ele>4.94385</ele>
        <time>2014-03-28T10:02:46Z</time>
        <extensions><gpxtpx:TrackPointExtension><gpxtpx:hr>185</gpxtpx:hr></gpxtpx:TrackPointExtension></extensions>
      </trkpt>
      <trkpt lat="60.0943516" lon="19.9281264">
        <ele>4.94385</ele>
        <time>2014-03-28T10:02:52Z</time>
        <extensions><gpxtpx:TrackPointExtension><gpxtpx:hr>185</gpxtpx:hr></gpxtpx:TrackPointExtension></extensions>
      </trkpt>
      <trkpt lat="60.0945217" lon="19.9280294">
        <ele>4.94385</ele>
        <time>2014-03-28T10:02:57Z</time>
        <extensions><gpxtpx:TrackPointExtension><gpxtpx:hr>185</gpxtpx:hr></gpxtpx:TrackPointExtension></extensions>
      </trkpt>
      <trkpt lat="60.0946347" lon="19.9279921">
        <ele>4.94385</ele>
        <time>2014-03-28T10:03:00Z</time>
        <extensions><gpxtpx:TrackPointExtension><gpxtpx:hr>184</gpxtpx:hr></gpxtpx:TrackPointExtension></extensions>
      </trkpt>
      <trkpt lat="60.0947439" lon="19.9282102">
        <ele>5.90527</ele>
        <time>2014-03-28T10:03:04Z</time>
        <extensions><gpxtpx:TrackPointExtension><gpxtpx:hr>186</gpxtpx:hr></gpxtpx:TrackPointExtension></extensions>
      </trkpt>
      <trkpt lat="60.0947838" lon="19.9284794">
        <ele>13.5958</ele>
        <time>2014-03-28T10:03:09Z</time>
        <extensions><gpxtpx:TrackPointExtension><gpxtpx:hr>186</gpxtpx:hr></gpxtpx:TrackPointExtension></extensions>
      </trkpt>
      <trkpt lat="60.0947264" lon="19.9285251">
        <ele>12.6344</ele>
        <time>2014-03-28T10:03:12Z</time>
        <extensions><gpxtpx:TrackPointExtension><gpxtpx:hr>186</gpxtpx:hr></gpxtpx:TrackPointExtension></extensions>
      </trkpt>
      <trkpt lat="60.0950074" lon="19.9295751">
        <ele>19.3638</ele>
        <time>2014-03-28T10:04:18Z</time>
        <extensions><gpxtpx:TrackPointExtension><gpxtpx:hr>162</gpxtpx:hr></gpxtpx:TrackPointExtension></extensions>
      </trkpt>
      <trkpt lat="60.0949732" lon="19.9295979">
        <ele>18.4023</ele>
        <time>2014-03-28T10:04:19Z</time>
        <extensions><gpxtpx:TrackPointExtension><gpxtpx:hr>162</gpxtpx:hr></gpxtpx:TrackPointExtension></extensions>
      </trkpt>
      <trkpt lat="60.0947398" lon="19.9297533">
        <ele>15.0377</ele>
        <time>2014-03-28T10:04:25Z</time>
        <extensions><gpxtpx:TrackPointExtension><gpxtpx:hr>161</gpxtpx:hr></gpxtpx:TrackPointExtension></extensions>
      </trkpt>
      <trkpt lat="60.0944625" lon="19.9299247">
        <ele>13.1151</ele>
        <time>2014-03-28T10:04:31Z</time>
        <extensions><gpxtpx:TrackPointExtension><gpxtpx:hr>161</gpxtpx:hr></gpxtpx:TrackPointExtension></extensions>
      </trkpt>
      <trkpt lat="60.0941756" lon="19.9300272">
        <ele>13.1151</ele>
        <time>2014-03-28T10:04:36Z</time>
        <extensions><gpxtpx:TrackPointExtension><gpxtpx:hr>162</gpxtpx:hr></gpxtpx:TrackPointExtension></extensions>
      </trkpt>
      <trkpt lat="60.0938077" lon="19.930022">
        <ele>12.1538</ele>
        <time>2014-03-28T10:04:42Z</time>
        <extensions><gpxtpx:TrackPointExtension><gpxtpx:hr>162</gpxtpx:hr></gpxtpx:TrackPointExtension></extensions>
      </trkpt>
      <trkpt lat="60.0933588" lon="19.9298751">
        <ele>11.6732</ele>
        <time>2014-03-28T10:04:49Z</time>
        <extensions><gpxtpx:TrackPointExtension><gpxtpx:hr>162</gpxtpx:hr></gpxtpx:TrackPointExtension></extensions>
      </trkpt>
      <trkpt lat="60.0929646" lon="19.92997">
        <ele>9.2699</ele>
        <time>2014-03-28T10:04:55Z</time>
        <extensions><gpxtpx:TrackPointExtension><gpxtpx:hr>162</gpxtpx:hr></gpxtpx:TrackPointExtension></extensions>
      </trkpt>
      <trkpt lat="60.0927943" lon="19.9300246">
        <ele>8.30859</ele>
        <time>2014-03-28T10:04:58Z</time>
        <extensions><gpxtpx:TrackPointExtension><gpxtpx:hr>162</gpxtpx:hr></gpxtpx:TrackPointExtension></extensions>
      </trkpt>
      <trkpt lat="60.0927096" lon="19.9302287">
        <ele>9.2699</ele>
        <time>2014-03-28T10:05:01Z</time>
        <extensions><gpxtpx:TrackPointExtension><gpxtpx:hr>160</gpxtpx:hr></gpxtpx:TrackPointExtension></extensions>
      </trkpt>
      <trkpt lat="60.0927098" lon="19.9303345">
        <ele>9.75061</ele>
        <time>2014-03-28T10:05:02Z</time>
        <extensions><gpxtpx:TrackPointExtension><gpxtpx:hr>160</gpxtpx:hr></gpxtpx:TrackPointExtension></extensions>
      </trkpt>
      <trkpt lat="60.0927559" lon="19.9311742">
        <ele>14.557</ele>
        <time>2014-03-28T10:05:11Z</time>
        <extensions><gpxtpx:TrackPointExtension><gpxtpx:hr>159</gpxtpx:hr></gpxtpx:TrackPointExtension></extensions>
      </trkpt>
      <trkpt lat="60.0927884" lon="19.9316114">
        <ele>15.999</ele>
        <time>2014-03-28T10:05:16Z</time>
        <extensions><gpxtpx:TrackPointExtension><gpxtpx:hr>163</gpxtpx:hr></gpxtpx:TrackPointExtension></extensions>
      </trkpt>
      <trkpt lat="60.092829" lon="19.9322698">
        <ele>18.4023</ele>
        <time>2014-03-28T10:05:23Z</time>
        <extensions><gpxtpx:TrackPointExtension><gpxtpx:hr>169</gpxtpx:hr></gpxtpx:TrackPointExtension></extensions>
      </trkpt>
      <trkpt lat="60.0928792" lon="19.9330264">
        <ele>19.8444</ele>
        <time>2014-03-28T10:05:31Z</time>
        <extensions><gpxtpx:TrackPointExtension><gpxtpx:hr>171</gpxtpx:hr></gpxtpx:TrackPointExtension></extensions>
      </trkpt>
      <trkpt lat="60.0929084" lon="19.9336014">
        <ele>22.2476</ele>
        <time>2014-03-28T10:05:38Z</time>
        <extensions><gpxtpx:TrackPointExtension><gpxtpx:hr>172</gpxtpx:hr></gpxtpx:TrackPointExtension></extensions>
      </trkpt>
      <trkpt lat="60.0929604" lon="19.934279">
        <ele>24.1703</ele>
        <time>2014-03-28T10:05:47Z</time>
        <extensions><gpxtpx:TrackPointExtension><gpxtpx:hr>175</gpxtpx:hr></gpxtpx:TrackPointExtension></extensions>
      </trkpt>
      <trkpt lat="60.0930053" lon="19.9350945">
        <ele>26.0929</ele>
        <time>2014-03-28T10:05:57Z</time>
        <extensions><gpxtpx:TrackPointExtension><gpxtpx:hr>177</gpxtpx:hr></gpxtpx:TrackPointExtension></extensions>
      </trkpt>
      <trkpt lat="60.0930681" lon="19.9359445">
        <ele>25.6123</ele>
        <time>2014-03-28T10:06:05Z</time>
        <extensions><gpxtpx:TrackPointExtension><gpxtpx:hr>177</gpxtpx:hr></gpxtpx:TrackPointExtension></extensions>
      </trkpt>
      <trkpt lat="60.0931117" lon="19.9367464">
        <ele>24.1703</ele>
        <time>2014-03-28T10:06:11Z</time>
        <extensions><gpxtpx:TrackPointExtension><gpxtpx:hr>175</gpxtpx:hr></gpxtpx:TrackPointExtension></extensions>
      </trkpt>
      <trkpt lat="60.0931739" lon="19.9378047">
        <ele>22.7283</ele>
        <time>2014-03-28T10:06:18Z</time>
        <extensions><gpxtpx:TrackPointExtension><gpxtpx:hr>172</gpxtpx:hr></gpxtpx:TrackPointExtension></extensions>
      </trkpt>
      <trkpt lat="60.0931648" lon="19.9382273">
        <ele>22.2476</ele>
        <time>2014-03-28T10:06:21Z</time>
        <extensions><gpxtpx:TrackPointExtension><gpxtpx:hr>171</gpxtpx:hr></gpxtpx:TrackPointExtension></extensions>
      </trkpt>
      <trkpt lat="60.0932226" lon="19.9392612">
        <ele>19.3638</ele>
        <time>2014-03-28T10:06:28Z</time>
        <extensions><gpxtpx:TrackPointExtension><gpxtpx:hr>169</gpxtpx:hr></gpxtpx:TrackPointExtension></extensions>
      </trkpt>
      <trkpt lat="60.093249" lon="19.9397161">
        <ele>18.4023</ele>
        <time>2014-03-28T10:06:32Z</time>
        <extensions><gpxtpx:TrackPointExtension><gpxtpx:hr>169</gpxtpx:hr></gpxtpx:TrackPointExtension></extensions>
      </trkpt>
      <trkpt lat="60.0932531" lon="19.9397799">
        <ele>18.4023</ele>
        <time>2014-03-28T10:06:33Z</time>
        <extensions><gpxtpx:TrackPointExtension><gpxtpx:hr>169</gpxtpx:hr></gpxtpx:TrackPointExtension></extensions>
      </trkpt>
      <trkpt lat="60.0932702" lon="19.9400196">
        <ele>18.4023</ele>
        <time>2014-03-28T10:06:39Z</time>
        <extensions><gpxtpx:TrackPointExtension><gpxtpx:hr>168</gpxtpx:hr></gpxtpx:TrackPointExtension></extensions>
      </trkpt>
      <trkpt lat="60.0933033" lon="19.940447">
        <ele>19.3638</ele>
        <time>2014-03-28T10:06:45Z</time>
        <extensions><gpxtpx:TrackPointExtension><gpxtpx:hr>167</gpxtpx:hr></gpxtpx:TrackPointExtension></extensions>
      </trkpt>
      <trkpt lat="60.0933339" lon="19.9410543">
        <ele>19.8444</ele>
        <time>2014-03-28T10:06:52Z</time>
        <extensions><gpxtpx:TrackPointExtension><gpxtpx:hr>167</gpxtpx:hr></gpxtpx:TrackPointExtension></extensions>
      </trkpt>
      <trkpt lat="60.0933711" lon="19.9416971">
        <ele>19.8444</ele>
        <time>2014-03-28T10:06:58Z</time>
        <extensions><gpxtpx:TrackPointExtension><gpxtpx:hr>168</gpxtpx:hr></gpxtpx:TrackPointExtension></extensions>
      </trkpt>
      <trkpt lat="60.0933712" lon="19.941811">
        <ele>19.8444</ele>
        <time>2014-03-28T10:06:59Z</time>
        <extensions><gpxtpx:TrackPointExtension><gpxtpx:hr>168</gpxtpx:hr></gpxtpx:TrackPointExtension></extensions>
      </trkpt>
      <trkpt lat="60.0934282" lon="19.9427134">
        <ele>20.8057</ele>
        <time>2014-03-28T10:07:07Z</time>
        <extensions><gpxtpx:TrackPointExtension><gpxtpx:hr>170</gpxtpx:hr></gpxtpx:TrackPointExtension></extensions>
      </trkpt>
      <trkpt lat="60.0934713" lon="19.9434117">
        <ele>21.2864</ele>
        <time>2014-03-28T10:07:14Z</time>
        <extensions><gpxtpx:TrackPointExtension><gpxtpx:hr>171</gpxtpx:hr></gpxtpx:TrackPointExtension></extensions>
      </trkpt>
      <trkpt lat="60.0934897" lon="19.9436047">
        <ele>21.767</ele>
        <time>2014-03-28T10:07:16Z</time>
        <extensions><gpxtpx:TrackPointExtension><gpxtpx:hr>172</gpxtpx:hr></gpxtpx:TrackPointExtension></extensions>
      </trkpt>
      <trkpt lat="60.0935339" lon="19.944382">
        <ele>21.767</ele>
        <time>2014-03-28T10:07:23Z</time>
        <extensions><gpxtpx:TrackPointExtension><gpxtpx:hr>174</gpxtpx:hr></gpxtpx:TrackPointExtension></extensions>
      </trkpt>
      <trkpt lat="60.0935831" lon="19.9451821">
        <ele>22.2476</ele>
        <time>2014-03-28T10:07:30Z</time>
        <extensions><gpxtpx:TrackPointExtension><gpxtpx:hr>175</gpxtpx:hr></gpxtpx:TrackPointExtension></extensions>
      </trkpt>
      <trkpt lat="60.0936653" lon="19.9454563">
        <ele>21.767</ele>
        <time>2014-03-28T10:07:33Z</time>
        <extensions><gpxtpx:TrackPointExtension><gpxtpx:hr>175</gpxtpx:hr></gpxtpx:TrackPointExtension></extensions>
      </trkpt>
      <trkpt lat="60.0937069" lon="19.9458839">
        <ele>21.2864</ele>
        <time>2014-03-28T10:07:37Z</time>
        <extensions><gpxtpx:TrackPointExtension><gpxtpx:hr>174</gpxtpx:hr></gpxtpx:TrackPointExtension></extensions>
      </trkpt>
      <trkpt lat="60.0936976" lon="19.9460105">
        <ele>20.8057</ele>
        <time>2014-03-28T10:07:38Z</time>
        <extensions><gpxtpx:TrackPointExtension><gpxtpx:hr>175</gpxtpx:hr></gpxtpx:TrackPointExtension></extensions>
      </trkpt>
      <trkpt lat="60.0935494" lon="19.946489">
        <ele>19.3638</ele>
        <time>2014-03-28T10:07:42Z</time>
        <extensions><gpxtpx:TrackPointExtension><gpxtpx:hr>174</gpxtpx:hr></gpxtpx:TrackPointExtension></extensions>
      </trkpt>
      <trkpt lat="60.0933847" lon="19.9468238">
        <ele>18.4023</ele>
        <time>2014-03-28T10:07:45Z</time>
        <extensions><gpxtpx:TrackPointExtension><gpxtpx:hr>172</gpxtpx:hr></gpxtpx:TrackPointExtension></extensions>
      </trkpt>
      <trkpt lat="60.0932666" lon="19.9471971">
        <ele>17.4412</ele>
        <time>2014-03-28T10:07:48Z</time>
        <extensions><gpxtpx:TrackPointExtension><gpxtpx:hr>172</gpxtpx:hr></gpxtpx:TrackPointExtension></extensions>
      </trkpt>
      <trkpt lat="60.0930307" lon="19.9477757">
        <ele>17.4412</ele>
        <time>2014-03-28T10:07:53Z</time>
        <extensions><gpxtpx:TrackPointExtension><gpxtpx:hr>169</gpxtpx:hr></gpxtpx:TrackPointExtension></extensions>
      </trkpt>
      <trkpt lat="60.0927486" lon="19.9483925">
        <ele>18.4023</ele>
        <time>2014-03-28T10:07:59Z</time>
        <extensions><gpxtpx:TrackPointExtension><gpxtpx:hr>168</gpxtpx:hr></gpxtpx:TrackPointExtension></extensions>
      </trkpt>
      <trkpt lat="60.0924951" lon="19.9488025">
        <ele>18.4023</ele>
        <time>2014-03-28T10:08:04Z</time>
        <extensions><gpxtpx:TrackPointExtension><gpxtpx:hr>168</gpxtpx:hr></gpxtpx:TrackPointExtension></extensions>
      </trkpt>
      <trkpt lat="60.0923719" lon="19.9491083">
        <ele>18.4023</ele>
        <time>2014-03-28T10:08:07Z</time>
        <extensions><gpxtpx:TrackPointExtension><gpxtpx:hr>169</gpxtpx:hr></gpxtpx:TrackPointExtension></extensions>
      </trkpt>
      <trkpt lat="60.0922164" lon="19.9493595">
        <ele>17.9218</ele>
        <time>2014-03-28T10:08:10Z</time>
        <extensions><gpxtpx:TrackPointExtension><gpxtpx:hr>169</gpxtpx:hr></gpxtpx:TrackPointExtension></extensions>
      </trkpt>
      <trkpt lat="60.092001" lon="19.949876">
        <ele>17.9218</ele>
        <time>2014-03-28T10:08:15Z</time>
        <extensions><gpxtpx:TrackPointExtension><gpxtpx:hr>170</gpxtpx:hr></gpxtpx:TrackPointExtension></extensions>
      </trkpt>
      <trkpt lat="60.0918069" lon="19.950253">
        <ele>16.9604</ele>
        <time>2014-03-28T10:08:19Z</time>
        <extensions><gpxtpx:TrackPointExtension><gpxtpx:hr>171</gpxtpx:hr></gpxtpx:TrackPointExtension></extensions>
      </trkpt>
      <trkpt lat="60.0916227" lon="19.9503906">
        <ele>16.4797</ele>
        <time>2014-03-28T10:08:22Z</time>
        <extensions><gpxtpx:TrackPointExtension><gpxtpx:hr>171</gpxtpx:hr></gpxtpx:TrackPointExtension></extensions>
      </trkpt>
      <trkpt lat="60.0912187" lon="19.950508">
        <ele>16.4797</ele>
        <time>2014-03-28T10:08:29Z</time>
        <extensions><gpxtpx:TrackPointExtension><gpxtpx:hr>173</gpxtpx:hr></gpxtpx:TrackPointExtension></extensions>
      </trkpt>
      <trkpt lat="60.0910623" lon="19.9505332">
        <ele>16.9604</ele>
        <time>2014-03-28T10:08:32Z</time>
        <extensions><gpxtpx:TrackPointExtension><gpxtpx:hr>174</gpxtpx:hr></gpxtpx:TrackPointExtension></extensions>
      </trkpt>
      <trkpt lat="60.0908707" lon="19.9507123">
        <ele>17.9218</ele>
        <time>2014-03-28T10:08:36Z</time>
        <extensions><gpxtpx:TrackPointExtension><gpxtpx:hr>174</gpxtpx:hr></gpxtpx:TrackPointExtension></extensions>
      </trkpt>
      <trkpt lat="60.0905764" lon="19.9512887">
        <ele>15.999</ele>
        <time>2014-03-28T10:08:42Z</time>
        <extensions><gpxtpx:TrackPointExtension><gpxtpx:hr>176</gpxtpx:hr></gpxtpx:TrackPointExtension></extensions>
      </trkpt>
      <trkpt lat="60.090287" lon="19.9518699">
        <ele>16.4797</ele>
        <time>2014-03-28T10:08:47Z</time>
        <extensions><gpxtpx:TrackPointExtension><gpxtpx:hr>176</gpxtpx:hr></gpxtpx:TrackPointExtension></extensions>
      </trkpt>
      <trkpt lat="60.0899948" lon="19.9523216">
        <ele>16.9604</ele>
        <time>2014-03-28T10:08:52Z</time>
        <extensions><gpxtpx:TrackPointExtension><gpxtpx:hr>176</gpxtpx:hr></gpxtpx:TrackPointExtension></extensions>
      </trkpt>
      <trkpt lat="60.0898361" lon="19.9525763">
        <ele>16.9604</ele>
        <time>2014-03-28T10:08:55Z</time>
        <extensions><gpxtpx:TrackPointExtension><gpxtpx:hr>176</gpxtpx:hr></gpxtpx:TrackPointExtension></extensions>
      </trkpt>
      <trkpt lat="60.0896954" lon="19.9528541">
        <ele>17.9218</ele>
        <time>2014-03-28T10:08:58Z</time>
        <extensions><gpxtpx:TrackPointExtension><gpxtpx:hr>175</gpxtpx:hr></gpxtpx:TrackPointExtension></extensions>
      </trkpt>
      <trkpt lat="60.0894536" lon="19.9532387">
        <ele>18.8831</ele>
        <time>2014-03-28T10:09:03Z</time>
        <extensions><gpxtpx:TrackPointExtension><gpxtpx:hr>174</gpxtpx:hr></gpxtpx:TrackPointExtension></extensions>
      </trkpt>
      <trkpt lat="60.0893313" lon="19.9532813">
        <ele>19.3638</ele>
        <time>2014-03-28T10:09:06Z</time>
        <extensions><gpxtpx:TrackPointExtension><gpxtpx:hr>174</gpxtpx:hr></gpxtpx:TrackPointExtension></extensions>
      </trkpt>
      <trkpt lat="60.0892858" lon="19.9531171">
        <ele>18.4023</ele>
        <time>2014-03-28T10:09:09Z</time>
        <extensions><gpxtpx:TrackPointExtension><gpxtpx:hr>174</gpxtpx:hr></gpxtpx:TrackPointExtension></extensions>
      </trkpt>
      <trkpt lat="60.0891914" lon="19.9527881">
        <ele>18.8831</ele>
        <time>2014-03-28T10:09:15Z</time>
        <extensions><gpxtpx:TrackPointExtension><gpxtpx:hr>174</gpxtpx:hr></gpxtpx:TrackPointExtension></extensions>
      </trkpt>
      <trkpt lat="60.0889605" lon="19.9525096">
        <ele>18.4023</ele>
        <time>2014-03-28T10:09:23Z</time>
        <extensions><gpxtpx:TrackPointExtension><gpxtpx:hr>173</gpxtpx:hr></gpxtpx:TrackPointExtension></extensions>
      </trkpt>
      <trkpt lat="60.0886226" lon="19.9522026">
        <ele>18.8831</ele>
        <time>2014-03-28T10:09:33Z</time>
        <extensions><gpxtpx:TrackPointExtension><gpxtpx:hr>174</gpxtpx:hr></gpxtpx:TrackPointExtension></extensions>
      </trkpt>
      <trkpt lat="60.0884807" lon="19.9522681">
        <ele>19.8444</ele>
        <time>2014-03-28T10:09:37Z</time>
        <extensions><gpxtpx:TrackPointExtension><gpxtpx:hr>175</gpxtpx:hr></gpxtpx:TrackPointExtension></extensions>
      </trkpt>
      <trkpt lat="60.0882673" lon="19.9525478">
        <ele>20.8057</ele>
        <time>2014-03-28T10:09:43Z</time>
        <extensions><gpxtpx:TrackPointExtension><gpxtpx:hr>177</gpxtpx:hr></gpxtpx:TrackPointExtension></extensions>
      </trkpt>
      <trkpt lat="60.0879383" lon="19.9530869">
        <ele>20.8057</ele>
        <time>2014-03-28T10:09:51Z</time>
        <extensions><gpxtpx:TrackPointExtension><gpxtpx:hr>177</gpxtpx:hr></gpxtpx:TrackPointExtension></extensions>
      </trkpt>
      <trkpt lat="60.0877083" lon="19.9532799">
        <ele>21.2864</ele>
        <time>2014-03-28T10:09:55Z</time>
        <extensions><gpxtpx:TrackPointExtension><gpxtpx:hr>177</gpxtpx:hr></gpxtpx:TrackPointExtension></extensions>
      </trkpt>
      <trkpt lat="60.0875807" lon="19.9533294">
        <ele>21.2864</ele>
        <time>2014-03-28T10:09:57Z</time>
        <extensions><gpxtpx:TrackPointExtension><gpxtpx:hr>177</gpxtpx:hr></gpxtpx:TrackPointExtension></extensions>
      </trkpt>
      <trkpt lat="60.0873331" lon="19.953239">
        <ele>20.8057</ele>
        <time>2014-03-28T10:10:01Z</time>
        <extensions><gpxtpx:TrackPointExtension><gpxtpx:hr>177</gpxtpx:hr></gpxtpx:TrackPointExtension></extensions>
      </trkpt>
      <trkpt lat="60.087281" lon="19.9531758">
        <ele>20.8057</ele>
        <time>2014-03-28T10:10:02Z</time>
        <extensions><gpxtpx:TrackPointExtension><gpxtpx:hr>177</gpxtpx:hr></gpxtpx:TrackPointExtension></extensions>
      </trkpt>
      <trkpt lat="60.0870836" lon="19.9529011">
        <ele>21.767</ele>
        <time>2014-03-28T10:10:07Z</time>
        <extensions><gpxtpx:TrackPointExtension><gpxtpx:hr>176</gpxtpx:hr></gpxtpx:TrackPointExtension></extensions>
      </trkpt>
      <trkpt lat="60.0869619" lon="19.9528225">
        <ele>21.767</ele>
        <time>2014-03-28T10:10:10Z</time>
        <extensions><gpxtpx:TrackPointExtension><gpxtpx:hr>175</gpxtpx:hr></gpxtpx:TrackPointExtension></extensions>
      </trkpt>
      <trkpt lat="60.0867122" lon="19.9528685">
        <ele>21.2864</ele>
        <time>2014-03-28T10:10:15Z</time>
        <extensions><gpxtpx:TrackPointExtension><gpxtpx:hr>176</gpxtpx:hr></gpxtpx:TrackPointExtension></extensions>
      </trkpt>
      <trkpt lat="60.0865227" lon="19.9531309">
        <ele>20.325</ele>
        <time>2014-03-28T10:10:19Z</time>
        <extensions><gpxtpx:TrackPointExtension><gpxtpx:hr>174</gpxtpx:hr></gpxtpx:TrackPointExtension></extensions>
      </trkpt>
      <trkpt lat="60.086449" lon="19.9534985">
        <ele>20.8057</ele>
        <time>2014-03-28T10:10:23Z</time>
        <extensions><gpxtpx:TrackPointExtension><gpxtpx:hr>174</gpxtpx:hr></gpxtpx:TrackPointExtension></extensions>
      </trkpt>
      <trkpt lat="60.0867553" lon="19.9534812">
        <ele>60.7003</ele>
        <time>2014-03-28T10:18:31Z</time>
        <extensions><gpxtpx:TrackPointExtension><gpxtpx:hr>160</gpxtpx:hr></gpxtpx:TrackPointExtension></extensions>
      </trkpt>
      <trkpt lat="60.0867219" lon="19.9533808">
        <ele>50.6066</ele>
        <time>2014-03-28T10:18:38Z</time>
        <extensions><gpxtpx:TrackPointExtension><gpxtpx:hr>157</gpxtpx:hr></gpxtpx:TrackPointExtension></extensions>
      </trkpt>
      <trkpt lat="60.0867158" lon="19.9533615">
        <ele>33.7834</ele>
        <time>2014-03-28T10:18:54Z</time>
        <extensions><gpxtpx:TrackPointExtension><gpxtpx:hr>152</gpxtpx:hr></gpxtpx:TrackPointExtension></extensions>
      </trkpt>
      <trkpt lat="60.0867607" lon="19.9533105">
        <ele>39.5513</ele>
        <time>2014-03-28T10:19:11Z</time>
        <extensions><gpxtpx:TrackPointExtension><gpxtpx:hr>148</gpxtpx:hr></gpxtpx:TrackPointExtension></extensions>
      </trkpt>
      <trkpt lat="60.0867713" lon="19.9532882">
        <ele>40.9934</ele>
        <time>2014-03-28T10:19:13Z</time>
        <extensions><gpxtpx:TrackPointExtension><gpxtpx:hr>150</gpxtpx:hr></gpxtpx:TrackPointExtension></extensions>
      </trkpt>
      <trkpt lat="60.0867779" lon="19.9533195">
        <ele>43.3966</ele>
        <time>2014-03-28T10:19:17Z</time>
        <extensions><gpxtpx:TrackPointExtension><gpxtpx:hr>156</gpxtpx:hr></gpxtpx:TrackPointExtension></extensions>
      </trkpt>
      <trkpt lat="60.0867811" lon="19.9533554">
        <ele>43.8773</ele>
        <time>2014-03-28T10:19:22Z</time>
        <extensions><gpxtpx:TrackPointExtension><gpxtpx:hr>162</gpxtpx:hr></gpxtpx:TrackPointExtension></extensions>
      </trkpt>
      <trkpt lat="60.0867773" lon="19.9533798">
        <ele>45.3192</ele>
        <time>2014-03-28T10:19:26Z</time>
        <extensions><gpxtpx:TrackPointExtension><gpxtpx:hr>167</gpxtpx:hr></gpxtpx:TrackPointExtension></extensions>
      </trkpt>
      <trkpt lat="60.0867873" lon="19.9533803">
        <ele>48.2034</ele>
        <time>2014-03-28T10:19:29Z</time>
        <extensions><gpxtpx:TrackPointExtension><gpxtpx:hr>170</gpxtpx:hr></gpxtpx:TrackPointExtension></extensions>
      </trkpt>
      <trkpt lat="60.0867853" lon="19.9534971">
        <ele>44.358</ele>
        <time>2014-03-28T10:19:37Z</time>
        <extensions><gpxtpx:TrackPointExtension><gpxtpx:hr>169</gpxtpx:hr></gpxtpx:TrackPointExtension></extensions>
      </trkpt>
      <trkpt lat="60.0867893" lon="19.9535123">
        <ele>40.9934</ele>
        <time>2014-03-28T10:19:41Z</time>
        <extensions><gpxtpx:TrackPointExtension><gpxtpx:hr>166</gpxtpx:hr></gpxtpx:TrackPointExtension></extensions>
      </trkpt>
      <trkpt lat="60.0867669" lon="19.9534127">
        <ele>34.2642</ele>
        <time>2014-03-28T10:19:47Z</time>
        <extensions><gpxtpx:TrackPointExtension><gpxtpx:hr>162</gpxtpx:hr></gpxtpx:TrackPointExtension></extensions>
      </trkpt>
      <trkpt lat="60.086754" lon="19.9534158">
        <ele>32.3416</ele>
        <time>2014-03-28T10:19:54Z</time>
        <extensions><gpxtpx:TrackPointExtension><gpxtpx:hr>162</gpxtpx:hr></gpxtpx:TrackPointExtension></extensions>
      </trkpt>
      <trkpt lat="60.0867491" lon="19.9534371">
        <ele>33.7834</ele>
        <time>2014-03-28T10:19:56Z</time>
        <extensions><gpxtpx:TrackPointExtension><gpxtpx:hr>163</gpxtpx:hr></gpxtpx:TrackPointExtension></extensions>
      </trkpt>
      <trkpt lat="60.0867221" lon="19.9534422">
        <ele>32.3416</ele>
        <time>2014-03-28T10:19:59Z</time>
        <extensions><gpxtpx:TrackPointExtension><gpxtpx:hr>163</gpxtpx:hr></gpxtpx:TrackPointExtension></extensions>
      </trkpt>
      <trkpt lat="60.0866377" lon="19.9531491">
        <ele>3.98267</ele>
        <time>2014-03-28T10:20:26Z</time>
        <extensions><gpxtpx:TrackPointExtension><gpxtpx:hr>158</gpxtpx:hr></gpxtpx:TrackPointExtension></extensions>
      </trkpt>
      <trkpt lat="60.0866659" lon="19.9531617">
        <ele>17.9218</ele>
        <time>2014-03-28T10:20:41Z</time>
        <extensions><gpxtpx:TrackPointExtension><gpxtpx:hr>163</gpxtpx:hr></gpxtpx:TrackPointExtension></extensions>
      </trkpt>
      <trkpt lat="60.086675" lon="19.9532612">
        <ele>27.5349</ele>
        <time>2014-03-28T10:20:53Z</time>
        <extensions><gpxtpx:TrackPointExtension><gpxtpx:hr>166</gpxtpx:hr></gpxtpx:TrackPointExtension></extensions>
      </trkpt>
      <trkpt lat="60.0866517" lon="19.9533343">
        <ele>23.209</ele>
        <time>2014-03-28T10:20:58Z</time>
        <extensions><gpxtpx:TrackPointExtension><gpxtpx:hr>165</gpxtpx:hr></gpxtpx:TrackPointExtension></extensions>
      </trkpt>
      <trkpt lat="60.0865904" lon="19.9534552">
        <ele>3.02124</ele>
        <time>2014-03-28T10:21:24Z</time>
        <extensions><gpxtpx:TrackPointExtension><gpxtpx:hr>161</gpxtpx:hr></gpxtpx:TrackPointExtension></extensions>
      </trkpt>
      <trkpt lat="60.0865786" lon="19.9533673">
        <ele>2.06006</ele>
        <time>2014-03-28T10:21:27Z</time>
        <extensions><gpxtpx:TrackPointExtension><gpxtpx:hr>161</gpxtpx:hr></gpxtpx:TrackPointExtension></extensions>
      </trkpt>
      <trkpt lat="60.0865288" lon="19.9533186">
        <ele>0</ele>
        <time>2014-03-28T10:21:31Z</time>
        <extensions><gpxtpx:TrackPointExtension><gpxtpx:hr>161</gpxtpx:hr></gpxtpx:TrackPointExtension></extensions>
      </trkpt>
      <trkpt lat="60.0864981" lon="19.9532989">
        <ele>0</ele>
        <time>2014-03-28T10:21:33Z</time>
        <extensions><gpxtpx:TrackPointExtension><gpxtpx:hr>161</gpxtpx:hr></gpxtpx:TrackPointExtension></extensions>
      </trkpt>
      <trkpt lat="60.0865935" lon="19.9533778">
        <ele>3.98267</ele>
        <time>2014-03-28T10:21:38Z</time>
        <extensions><gpxtpx:TrackPointExtension><gpxtpx:hr>154</gpxtpx:hr></gpxtpx:TrackPointExtension></extensions>
      </trkpt>
      <trkpt lat="60.0866499" lon="19.9534465">
        <ele>6.38586</ele>
        <time>2014-03-28T10:21:42Z</time>
        <extensions><gpxtpx:TrackPointExtension><gpxtpx:hr>149</gpxtpx:hr></gpxtpx:TrackPointExtension></extensions>
      </trkpt>
      <trkpt lat="60.0867276" lon="19.9534262">
        <ele>21.767</ele>
        <time>2014-03-28T10:21:49Z</time>
        <extensions><gpxtpx:TrackPointExtension><gpxtpx:hr>154</gpxtpx:hr></gpxtpx:TrackPointExtension></extensions>
      </trkpt>
      <trkpt lat="60.0867397" lon="19.9534268">
        <ele>28.0155</ele>
        <time>2014-03-28T10:21:52Z</time>
        <extensions><gpxtpx:TrackPointExtension><gpxtpx:hr>159</gpxtpx:hr></gpxtpx:TrackPointExtension></extensions>
      </trkpt>
      <trkpt lat="60.0867403" lon="19.9534381">
        <ele>28.0155</ele>
        <time>2014-03-28T10:21:53Z</time>
        <extensions><gpxtpx:TrackPointExtension><gpxtpx:hr>160</gpxtpx:hr></gpxtpx:TrackPointExtension></extensions>
      </trkpt>
      <trkpt lat="60.0867413" lon="19.9534516">
        <ele>30.4188</ele>
        <time>2014-03-28T10:21:58Z</time>
        <extensions><gpxtpx:TrackPointExtension><gpxtpx:hr>167</gpxtpx:hr></gpxtpx:TrackPointExtension></extensions>
      </trkpt>
      <trkpt lat="60.0867268" lon="19.9533814">
        <ele>35.2255</ele>
        <time>2014-03-28T10:22:04Z</time>
        <extensions><gpxtpx:TrackPointExtension><gpxtpx:hr>168</gpxtpx:hr></gpxtpx:TrackPointExtension></extensions>
      </trkpt>
      <trkpt lat="60.086727" lon="19.9534097">
        <ele>36.6675</ele>
        <time>2014-03-28T10:22:10Z</time>
        <extensions><gpxtpx:TrackPointExtension><gpxtpx:hr>168</gpxtpx:hr></gpxtpx:TrackPointExtension></extensions>
      </trkpt>
      <trkpt lat="60.0867006" lon="19.9533958">
        <ele>42.916</ele>
        <time>2014-03-28T10:22:23Z</time>
        <extensions><gpxtpx:TrackPointExtension><gpxtpx:hr>163</gpxtpx:hr></gpxtpx:TrackPointExtension></extensions>
      </trkpt>
      <trkpt lat="60.0866862" lon="19.953461">
        <ele>40.9934</ele>
        <time>2014-03-28T10:22:47Z</time>
        <extensions><gpxtpx:TrackPointExtension><gpxtpx:hr>163</gpxtpx:hr></gpxtpx:TrackPointExtension></extensions>
      </trkpt>
      <trkpt lat="60.0866634" lon="19.9534382">
        <ele>38.1094</ele>
        <time>2014-03-28T10:22:51Z</time>
        <extensions><gpxtpx:TrackPointExtension><gpxtpx:hr>163</gpxtpx:hr></gpxtpx:TrackPointExtension></extensions>
      </trkpt>
      <trkpt lat="60.086623" lon="19.9534751">
        <ele>22.7283</ele>
        <time>2014-03-28T10:22:58Z</time>
        <extensions><gpxtpx:TrackPointExtension><gpxtpx:hr>159</gpxtpx:hr></gpxtpx:TrackPointExtension></extensions>
      </trkpt>
      <trkpt lat="60.0866287" lon="19.9535481">
        <ele>16.9604</ele>
        <time>2014-03-28T10:23:06Z</time>
        <extensions><gpxtpx:TrackPointExtension><gpxtpx:hr>164</gpxtpx:hr></gpxtpx:TrackPointExtension></extensions>
      </trkpt>
      <trkpt lat="60.086635" lon="19.9535515">
        <ele>17.9218</ele>
        <time>2014-03-28T10:23:10Z</time>
        <extensions><gpxtpx:TrackPointExtension><gpxtpx:hr>169</gpxtpx:hr></gpxtpx:TrackPointExtension></extensions>
      </trkpt>
      <trkpt lat="60.0866248" lon="19.953507">
        <ele>19.8444</ele>
        <time>2014-03-28T10:23:14Z</time>
        <extensions><gpxtpx:TrackPointExtension><gpxtpx:hr>174</gpxtpx:hr></gpxtpx:TrackPointExtension></extensions>
      </trkpt>
      <trkpt lat="60.0866063" lon="19.9534864">
        <ele>17.4412</ele>
        <time>2014-03-28T10:23:20Z</time>
        <extensions><gpxtpx:TrackPointExtension><gpxtpx:hr>179</gpxtpx:hr></gpxtpx:TrackPointExtension></extensions>
      </trkpt>
      <trkpt lat="60.0866196" lon="19.9535428">
        <ele>16.4797</ele>
        <time>2014-03-28T10:23:30Z</time>
        <extensions><gpxtpx:TrackPointExtension><gpxtpx:hr>179</gpxtpx:hr></gpxtpx:TrackPointExtension></extensions>
      </trkpt>
      <trkpt lat="60.0866302" lon="19.9534865">
        <ele>19.3638</ele>
        <time>2014-03-28T10:23:36Z</time>
        <extensions><gpxtpx:TrackPointExtension><gpxtpx:hr>177</gpxtpx:hr></gpxtpx:TrackPointExtension></extensions>
      </trkpt>
      <trkpt lat="60.0866033" lon="19.9534653">
        <ele>19.3638</ele>
        <time>2014-03-28T10:23:38Z</time>
        <extensions><gpxtpx:TrackPointExtension><gpxtpx:hr>176</gpxtpx:hr></gpxtpx:TrackPointExtension></extensions>
      </trkpt>
      <trkpt lat="60.0865635" lon="19.9533943">
        <ele>19.3638</ele>
        <time>2014-03-28T10:23:43Z</time>
        <extensions><gpxtpx:TrackPointExtension><gpxtpx:hr>176</gpxtpx:hr></gpxtpx:TrackPointExtension></extensions>
      </trkpt>
    </trkseg>
  </trk>
</gpx>